createdAt,value
2019-04-06T00:00:08.150Z,10.10
2019-04-06T00:02:40.132Z,10.00
2019-04-06T00:05:11.503Z,10.00
2019-04-06T00:07:42.682Z,9.90
2019-04-06T00:10:14.053Z,9.90
2019-04-06T00:12:45.217Z,9.80
2019-04-06T00:15:16.441Z,9.70
2019-04-06T00:17:47.755Z,9.70
2019-04-06T00:20:19.000Z,9.60
2019-04-06T00:22:50.151Z,9.60
2019-04-06T00:25:21.334Z,9.60
2019-04-06T00:27:52.548Z,9.50
2019-04-06T00:30:23.788Z,9.40
2019-04-06T00:33:19.820Z,9.30
2019-04-06T00:35:51.063Z,9.20
2019-04-06T00:38:23.198Z,9.00
2019-04-06T00:40:54.446Z,8.90
2019-04-06T00:43:25.589Z,8.90
2019-04-06T00:45:56.777Z,8.90
2019-04-06T00:48:27.917Z,8.90
2019-04-06T00:50:59.059Z,8.90
2019-04-06T00:53:30.197Z,8.90
2019-04-06T00:56:02.120Z,8.80
2019-04-06T00:58:33.236Z,8.80
2019-04-06T01:01:04.677Z,8.70
2019-04-06T01:03:35.823Z,8.60
2019-04-06T01:06:07.123Z,8.70
2019-04-06T01:08:38.197Z,8.70
2019-04-06T01:11:09.265Z,8.70
2019-04-06T01:13:40.511Z,8.80
2019-04-06T01:16:11.590Z,8.80
2019-04-06T01:18:42.754Z,8.80
2019-04-06T01:21:13.899Z,8.80
2019-04-06T01:23:44.993Z,8.90
2019-04-06T01:26:19.338Z,8.90
2019-04-06T01:28:50.546Z,8.90
2019-04-06T01:31:21.692Z,8.90
2019-04-06T01:33:52.825Z,8.90
2019-04-06T01:36:24.285Z,8.90
2019-04-06T01:38:55.471Z,8.90
2019-04-06T01:41:26.740Z,8.90
2019-04-06T01:43:57.913Z,8.90
2019-04-06T01:46:28.968Z,8.90
2019-04-06T01:49:00.149Z,8.90
2019-04-06T01:51:31.382Z,8.80
2019-04-06T01:54:02.583Z,8.80
2019-04-06T01:56:33.680Z,8.80
2019-04-06T01:59:06.038Z,8.80
2019-04-06T02:01:41.310Z,8.80
2019-04-06T02:04:12.505Z,8.70
2019-04-06T02:06:43.539Z,8.70
2019-04-06T02:09:14.777Z,8.60
2019-04-06T02:11:45.933Z,8.50
2019-04-06T02:14:17.052Z,8.40
2019-04-06T02:16:48.199Z,8.40
2019-04-06T02:19:19.436Z,8.30
2019-04-06T02:21:50.632Z,8.30
2019-04-06T02:24:21.658Z,8.30
2019-04-06T02:26:52.805Z,8.30
2019-04-06T02:29:23.919Z,8.30
2019-04-06T02:32:22.950Z,8.30
2019-04-06T02:35:25.053Z,8.20
2019-04-06T02:38:23.946Z,8.20
2019-04-06T02:41:01.055Z,8.10
2019-04-06T02:43:34.041Z,8.00
2019-04-06T02:46:05.247Z,8.00
2019-04-06T02:48:36.451Z,8.00
2019-04-06T02:51:07.658Z,7.90
2019-04-06T02:53:38.852Z,7.90
2019-04-06T02:56:09.932Z,7.80
2019-04-06T02:58:41.213Z,7.80
2019-04-06T03:01:12.250Z,7.80
2019-04-06T03:03:43.333Z,7.90
2019-04-06T03:06:14.381Z,7.90
2019-04-06T03:08:46.715Z,7.90
2019-04-06T03:11:17.896Z,7.90
2019-04-06T03:13:49.043Z,7.90
2019-04-06T03:16:20.067Z,7.90
2019-04-06T03:18:51.119Z,7.90
2019-04-06T03:21:22.279Z,7.80
2019-04-06T03:23:53.359Z,7.70
2019-04-06T03:26:24.455Z,7.70
2019-04-06T03:28:55.730Z,7.70
2019-04-06T03:31:27.823Z,7.70
2019-04-06T03:33:59.672Z,7.60
2019-04-06T03:36:30.772Z,7.60
2019-04-06T03:39:01.887Z,7.60
2019-04-06T03:41:34.205Z,7.50
2019-04-06T03:44:05.600Z,7.50
2019-04-06T03:46:36.843Z,7.50
2019-04-06T03:49:07.963Z,7.50
2019-04-06T03:51:38.985Z,7.50
2019-04-06T03:54:10.072Z,7.50
2019-04-06T03:56:41.139Z,7.50
2019-04-06T03:59:12.272Z,7.50
2019-04-06T04:01:43.294Z,7.50
2019-04-06T04:04:14.324Z,7.60
2019-04-06T04:06:45.436Z,7.60
2019-04-06T04:09:16.448Z,7.60
2019-04-06T04:11:47.543Z,7.60
2019-04-06T04:14:18.685Z,7.60
2019-04-06T04:16:50.824Z,7.60
2019-04-06T04:19:21.970Z,7.60
2019-04-06T04:21:53.069Z,7.50
2019-04-06T04:24:24.099Z,7.50
2019-04-06T04:26:55.196Z,7.50
2019-04-06T04:29:26.254Z,7.50
2019-04-06T04:31:57.296Z,7.50
2019-04-06T04:34:28.624Z,7.50
2019-04-06T04:36:59.782Z,7.60
2019-04-06T04:39:31.049Z,7.60
2019-04-06T04:42:02.438Z,7.60
2019-04-06T04:44:34.778Z,7.70
2019-04-06T04:47:05.827Z,7.70
2019-04-06T04:49:37.112Z,7.80
2019-04-06T04:52:08.170Z,7.90
2019-04-06T04:54:39.248Z,8.00
2019-04-06T04:57:10.535Z,8.10
2019-04-06T04:59:41.767Z,8.10
2019-04-06T05:02:12.892Z,8.10
2019-04-06T05:04:44.053Z,8.20
2019-04-06T05:07:15.172Z,8.30
2019-04-06T05:09:46.289Z,8.30
2019-04-06T05:12:17.455Z,8.30
2019-04-06T05:15:04.852Z,8.40
2019-04-06T05:17:36.238Z,8.50
2019-04-06T05:20:09.857Z,8.60
2019-04-06T05:22:40.999Z,8.70
2019-04-06T05:25:12.373Z,8.80
2019-04-06T05:27:52.043Z,9.00
2019-04-06T05:30:16.522Z,9.10
2019-04-06T05:32:47.558Z,9.20
2019-04-06T05:35:18.658Z,9.30
2019-04-06T05:37:49.787Z,9.50
2019-04-06T05:40:21.100Z,9.60
2019-04-06T05:42:52.324Z,9.80
2019-04-06T05:45:23.385Z,9.90
2019-04-06T05:47:54.602Z,10.10
2019-04-06T05:50:25.754Z,10.20
2019-04-06T05:52:56.910Z,10.40
2019-04-06T05:55:28.227Z,10.60
2019-04-06T05:58:03.918Z,10.70
2019-04-06T06:00:33.348Z,10.80
2019-04-06T06:03:06.276Z,10.90
2019-04-06T06:05:41.011Z,11.10
2019-04-06T06:08:11.575Z,11.30
2019-04-06T06:10:42.791Z,11.40
2019-04-06T06:13:14.719Z,11.50
2019-04-06T06:15:46.042Z,11.60
2019-04-06T06:18:26.444Z,11.70
2019-04-06T06:20:51.199Z,11.70
2019-04-06T06:23:22.934Z,11.90
2019-04-06T06:25:56.277Z,11.90
2019-04-06T06:28:30.678Z,12.00
2019-04-06T06:31:02.334Z,12.10
2019-04-06T06:33:35.852Z,12.20
2019-04-06T06:36:07.530Z,12.30
2019-04-06T06:38:39.303Z,12.40
2019-04-06T06:41:11.317Z,12.50
2019-04-06T06:43:45.096Z,12.60
2019-04-06T06:46:15.804Z,12.70
2019-04-06T06:48:49.452Z,12.70
2019-04-06T06:51:24.965Z,12.80
2019-04-06T06:53:56.532Z,12.90
2019-04-06T06:56:28.902Z,12.90
2019-04-06T06:59:00.276Z,13.00
2019-04-06T07:01:33.133Z,13.00
2019-04-06T07:04:07.398Z,13.10
2019-04-06T07:06:38.700Z,13.20
2019-04-06T07:09:10.084Z,13.40
2019-04-06T07:11:41.356Z,13.50
2019-04-06T07:14:15.329Z,13.60
2019-04-06T07:16:47.840Z,13.70
2019-04-06T07:19:19.589Z,13.70
2019-04-06T07:21:53.483Z,13.70
2019-04-06T07:24:25.373Z,13.80
2019-04-06T07:26:56.515Z,13.90
2019-04-06T07:29:27.893Z,14.00
2019-04-06T07:31:59.329Z,14.10
2019-04-06T07:34:34.248Z,14.20
2019-04-06T07:37:05.606Z,14.30
2019-04-06T07:39:36.977Z,14.40
2019-04-06T07:42:08.189Z,14.50
2019-04-06T07:44:39.307Z,14.60
2019-04-06T07:47:10.605Z,14.90
2019-04-06T07:49:42.813Z,15.00
2019-04-06T07:52:14.155Z,15.00
2019-04-06T07:54:45.433Z,15.10
2019-04-06T07:57:16.553Z,15.20
2019-04-06T07:59:47.906Z,15.20
2019-04-06T08:02:19.528Z,15.30
2019-04-06T08:04:50.849Z,15.40
2019-04-06T08:07:33.768Z,15.50
2019-04-06T08:10:05.760Z,15.50
2019-04-06T08:12:37.119Z,15.60
2019-04-06T08:15:09.177Z,15.80
2019-04-06T08:17:40.728Z,16.00
2019-04-06T08:20:11.975Z,16.10
2019-04-06T08:22:43.193Z,16.30
2019-04-06T08:25:15.387Z,16.40
2019-04-06T08:27:47.571Z,16.50
2019-04-06T08:30:18.917Z,16.70
2019-04-06T08:32:50.115Z,16.70
2019-04-06T08:35:26.185Z,16.90
2019-04-06T08:37:54.056Z,17.00
2019-04-06T08:40:25.513Z,17.10
2019-04-06T08:42:56.921Z,17.30
2019-04-06T08:45:28.122Z,17.50
2019-04-06T08:47:59.497Z,17.70
2019-04-06T08:50:30.669Z,17.70
2019-04-06T08:53:02.008Z,17.70
2019-04-06T08:55:33.295Z,17.70
2019-04-06T08:58:04.503Z,17.80
2019-04-06T09:00:35.710Z,18.00
2019-04-06T09:03:06.894Z,18.10
2019-04-06T09:05:38.084Z,18.10
2019-04-06T09:08:09.128Z,18.20
2019-04-06T09:10:40.201Z,18.50
2019-04-06T09:13:11.664Z,18.60
2019-04-06T09:15:42.840Z,18.80
2019-04-06T09:18:13.954Z,19.00
2019-04-06T09:20:46.259Z,19.10
2019-04-06T09:23:17.555Z,19.20
2019-04-06T09:25:48.691Z,19.40
2019-04-06T09:28:19.877Z,19.60
2019-04-06T09:30:51.319Z,19.70
2019-04-06T09:33:22.474Z,19.70
2019-04-06T09:35:53.585Z,19.50
2019-04-06T09:38:24.929Z,19.60
2019-04-06T09:40:56.307Z,19.70
2019-04-06T09:43:28.154Z,19.60
2019-04-06T09:46:24.079Z,19.90
2019-04-06T09:49:14.770Z,20.10
2019-04-06T09:51:53.031Z,20.10
2019-04-06T09:54:39.280Z,20.00
2019-04-06T09:57:28.147Z,20.20
2019-04-06T10:00:21.227Z,20.40
2019-04-06T10:03:20.207Z,20.50
2019-04-06T10:06:09.040Z,20.60
2019-04-06T10:09:09.250Z,20.50
2019-04-06T10:11:58.394Z,20.30
2019-04-06T10:14:52.687Z,20.50
2019-04-06T10:17:58.174Z,20.60
2019-04-06T10:20:55.956Z,20.70
2019-04-06T10:23:51.510Z,20.70
2019-04-06T10:26:44.697Z,20.80
2019-04-06T10:29:46.873Z,20.90
2019-04-06T10:32:19.818Z,21.30
2019-04-06T10:35:15.974Z,21.50
2019-04-06T10:38:03.283Z,21.50
2019-04-06T10:40:47.063Z,21.60
2019-04-06T10:43:35.720Z,21.70
2019-04-06T10:46:14.889Z,22.00
2019-04-06T10:49:10.868Z,22.30
2019-04-06T10:52:16.309Z,22.40
2019-04-06T10:55:06.679Z,22.20
2019-04-06T10:58:06.226Z,22.00
2019-04-06T11:00:56.645Z,22.00
2019-04-06T11:03:33.954Z,22.10
2019-04-06T11:06:51.396Z,22.20
2019-04-06T11:09:40.427Z,22.40
2019-04-06T11:12:33.622Z,22.40
2019-04-06T11:15:22.838Z,22.60
2019-04-06T11:18:11.815Z,22.70
2019-04-06T11:21:03.617Z,22.60
2019-04-06T11:23:57.019Z,22.50
2019-04-06T11:26:47.034Z,22.40
2019-04-06T11:29:37.218Z,22.30
2019-04-06T11:32:30.300Z,22.20
2019-04-06T11:35:31.108Z,22.30
2019-04-06T11:38:27.745Z,22.30
2019-04-06T11:41:24.328Z,22.40
2019-04-06T11:44:26.646Z,22.40
2019-04-06T11:47:15.702Z,22.30
2019-04-06T11:50:15.055Z,22.10
2019-04-06T11:53:05.414Z,21.80
2019-04-06T11:55:52.743Z,21.60
2019-04-06T11:58:56.803Z,21.50
2019-04-06T12:01:38.210Z,21.60
2019-04-06T12:04:20.963Z,21.80
2019-04-06T12:07:17.139Z,22.10
2019-04-06T12:09:54.944Z,22.60
2019-04-06T12:12:40.727Z,23.10
2019-04-06T12:15:32.303Z,23.10
2019-04-06T12:18:11.390Z,23.10
2019-04-06T12:21:10.750Z,23.10
2019-04-06T12:24:05.445Z,22.80
2019-04-06T12:27:04.178Z,22.50
2019-04-06T12:30:10.286Z,22.50
2019-04-06T12:33:04.630Z,22.80
2019-04-06T12:35:49.869Z,23.30
2019-04-06T12:38:43.277Z,23.70
2019-04-06T12:41:40.050Z,24.00
2019-04-06T12:44:20.011Z,24.20
2019-04-06T12:47:09.253Z,24.40
2019-04-06T12:49:58.309Z,24.60
2019-04-06T12:52:38.104Z,24.60
2019-04-06T12:55:20.118Z,24.80
2019-04-06T12:58:13.652Z,24.80
2019-04-06T13:01:15.580Z,24.80
2019-04-06T13:04:09.741Z,25.00
2019-04-06T13:07:28.479Z,24.80
2019-04-06T13:10:26.189Z,24.10
2019-04-06T13:13:22.680Z,23.70
2019-04-06T13:15:59.233Z,23.60
2019-04-06T13:18:42.357Z,23.60
2019-04-06T13:21:31.468Z,23.60
2019-04-06T13:24:20.559Z,23.70
2019-04-06T13:27:09.567Z,23.90
2019-04-06T13:30:08.905Z,24.30
2019-04-06T13:33:01.310Z,24.50
2019-04-06T13:35:54.513Z,24.60
2019-04-06T13:38:43.427Z,24.60
2019-04-06T13:41:33.659Z,24.90
2019-04-06T13:44:32.924Z,24.80
2019-04-06T13:47:29.987Z,24.70
2019-04-06T13:50:19.115Z,24.60
2019-04-06T13:53:09.253Z,24.50
2019-04-06T13:56:03.034Z,24.30
2019-04-06T13:58:57.399Z,24.20
2019-04-06T14:01:51.270Z,24.20
2019-04-06T14:05:05.135Z,24.20
2019-04-06T14:08:04.404Z,24.30
2019-04-06T14:11:05.582Z,24.00
2019-04-06T14:14:20.509Z,23.60
2019-04-06T14:17:19.574Z,23.40
2019-04-06T14:20:15.103Z,22.90
2019-04-06T14:23:08.543Z,22.50
2019-04-06T14:26:06.457Z,22.10
2019-04-06T14:29:05.450Z,21.90
2019-04-06T14:32:00.626Z,21.80
2019-04-06T14:34:49.925Z,22.00
2019-04-06T14:37:43.595Z,22.30
2019-04-06T14:40:30.617Z,22.50
2019-04-06T14:43:29.856Z,22.90
2019-04-06T14:46:26.744Z,23.10
2019-04-06T14:49:28.519Z,23.40
2019-04-06T14:52:14.037Z,23.50
2019-04-06T14:55:02.938Z,23.50
2019-04-06T14:57:46.505Z,23.50
2019-04-06T15:00:34.135Z,23.60
2019-04-06T15:03:22.591Z,23.50
2019-04-06T15:06:16.278Z,23.40
2019-04-06T15:09:07.489Z,23.00
2019-04-06T15:12:06.952Z,22.30
2019-04-06T15:14:53.150Z,21.90
2019-04-06T15:17:49.415Z,21.50
2019-04-06T15:20:33.905Z,21.50
2019-04-06T15:23:23.051Z,21.40
2019-04-06T15:26:01.907Z,21.50
2019-04-06T15:29:04.589Z,21.70
2019-04-06T15:31:53.706Z,21.80
2019-04-06T15:34:43.728Z,21.80
2019-04-06T15:37:23.667Z,21.70
2019-04-06T15:40:12.342Z,21.50
2019-04-06T15:42:54.115Z,21.30
2019-04-06T15:45:38.474Z,21.20
2019-04-06T15:48:37.487Z,21.00
2019-04-06T15:51:17.969Z,20.70
2019-04-06T15:54:01.137Z,20.20
2019-04-06T15:56:53.882Z,19.80
2019-04-06T15:59:42.528Z,19.60
2019-04-06T16:02:32.662Z,19.50
2019-04-06T16:05:28.418Z,19.60
2019-04-06T16:08:31.046Z,19.50
2019-04-06T16:11:21.155Z,19.30
2019-04-06T16:14:21.615Z,19.00
2019-04-06T16:17:05.197Z,18.80
2019-04-06T16:19:45.498Z,18.50
2019-04-06T16:22:34.634Z,18.20
2019-04-06T16:25:40.844Z,18.00
2019-04-06T16:28:23.505Z,17.70
2019-04-06T16:31:39.742Z,17.50
2019-04-06T16:34:38.549Z,17.30
2019-04-06T16:37:28.641Z,17.20
2019-04-06T16:40:34.444Z,17.00
2019-04-06T16:43:32.150Z,16.90
2019-04-06T16:46:25.905Z,16.80
2019-04-06T16:49:18.834Z,16.60
2019-04-06T16:52:15.541Z,16.50
2019-04-06T16:54:55.892Z,16.30
2019-04-06T16:57:39.403Z,16.20
2019-04-06T17:00:27.496Z,16.10
2019-04-06T17:03:19.515Z,15.90
2019-04-06T17:06:07.995Z,15.80
2019-04-06T17:09:10.045Z,15.60
2019-04-06T17:12:12.301Z,15.50
2019-04-06T17:15:08.369Z,15.40
2019-04-06T17:17:53.751Z,15.20
2019-04-06T17:20:48.436Z,15.00
2019-04-06T17:23:46.149Z,14.90
2019-04-06T17:26:26.801Z,14.70
2019-04-06T17:29:29.110Z,14.60
2019-04-06T17:32:06.479Z,14.40
2019-04-06T17:34:57.184Z,14.30
2019-04-06T17:38:00.301Z,14.20
2019-04-06T17:40:37.927Z,14.10
2019-04-06T17:43:37.247Z,14.00
2019-04-06T17:46:27.763Z,13.90
2019-04-06T17:49:18.045Z,13.80
2019-04-06T17:52:00.236Z,13.70
2019-04-06T17:54:43.385Z,13.60
2019-04-06T17:57:36.653Z,13.50
2019-04-06T18:00:23.324Z,13.50
2019-04-06T18:03:07.985Z,13.50
2019-04-06T18:06:00.250Z,13.40
2019-04-06T18:08:46.478Z,13.40
2019-04-06T18:11:35.725Z,13.30
2019-04-06T18:14:07.190Z,13.20
2019-04-06T18:16:38.597Z,13.10
2019-04-06T18:19:10.213Z,12.90
2019-04-06T18:21:41.423Z,12.80
2019-04-06T18:24:12.634Z,12.70
2019-04-06T18:26:43.780Z,12.70
2019-04-06T18:29:15.157Z,12.60
2019-04-06T18:32:14.325Z,12.60
2019-04-06T18:34:46.121Z,12.50
2019-04-06T18:37:36.792Z,12.30
2019-04-06T18:40:18.953Z,12.20
2019-04-06T18:42:50.673Z,12.10
2019-04-06T18:45:21.994Z,12.00
2019-04-06T18:47:53.270Z,11.90
2019-04-06T18:50:34.179Z,11.80
2019-04-06T18:52:58.531Z,11.70
2019-04-06T18:55:29.875Z,11.60
2019-04-06T18:58:10.590Z,11.50
2019-04-06T19:00:34.583Z,11.40
2019-04-06T19:03:14.718Z,11.30
2019-04-06T19:05:39.245Z,11.10
2019-04-06T19:08:10.569Z,11.00
2019-04-06T19:10:41.825Z,10.90
2019-04-06T19:13:13.581Z,10.70
2019-04-06T19:15:44.722Z,10.60
2019-04-06T19:18:15.908Z,10.50
2019-04-06T19:20:47.343Z,10.40
2019-04-06T19:23:18.676Z,10.30
2019-04-06T19:25:50.016Z,10.20
2019-04-06T19:28:21.280Z,10.10
2019-04-06T19:30:52.558Z,10.00
2019-04-06T19:33:25.805Z,10.00
2019-04-06T19:35:56.656Z,10.00
2019-04-06T19:38:27.949Z,10.00
2019-04-06T19:40:59.713Z,10.00
2019-04-06T19:43:31.001Z,10.00
2019-04-06T19:46:02.283Z,10.00
2019-04-06T19:48:33.733Z,10.00
2019-04-06T19:51:05.150Z,10.00
2019-04-06T19:53:39.074Z,10.00
2019-04-06T19:56:12.040Z,9.90
2019-04-06T19:58:56.261Z,9.90
2019-04-06T20:01:42.197Z,9.90
2019-04-06T20:04:21.741Z,9.80
2019-04-06T20:10:25.552Z,9.50
2019-04-06T20:12:57.199Z,9.40
2019-04-06T20:15:28.780Z,9.20
2019-04-06T20:18:00.150Z,9.10
2019-04-06T20:20:31.546Z,9.00
2019-04-06T20:23:02.835Z,8.80
2019-04-06T20:25:36.182Z,8.70
2019-04-06T20:28:07.704Z,8.60
2019-04-06T20:30:39.094Z,8.50
2019-04-06T20:33:10.725Z,8.40
2019-04-06T20:35:42.029Z,8.30
2019-04-06T20:38:13.265Z,8.20
2019-04-06T20:40:44.697Z,8.10
2019-04-06T20:43:16.375Z,8.00
2019-04-06T20:45:47.788Z,7.90
2019-04-06T20:48:19.368Z,7.90
2019-04-06T20:50:50.785Z,7.80
2019-04-06T20:53:22.660Z,7.70
2019-04-06T20:55:54.216Z,7.60
2019-04-06T20:58:25.947Z,7.50
2019-04-06T21:00:57.019Z,7.50
2019-04-06T21:03:28.285Z,7.40
2019-04-06T21:05:59.479Z,7.40
2019-04-06T21:08:30.921Z,7.30
2019-04-06T21:11:02.057Z,7.30
2019-04-06T21:13:33.307Z,7.20
2019-04-06T21:16:04.543Z,7.20
2019-04-06T21:18:35.726Z,7.10
2019-04-06T21:21:07.826Z,7.00
2019-04-06T21:23:39.156Z,6.90
2019-04-06T21:26:10.876Z,6.90
2019-04-06T21:28:42.125Z,6.80
2019-04-06T21:31:13.328Z,6.70
2019-04-06T21:33:45.844Z,6.60
2019-04-06T21:36:17.483Z,6.60
2019-04-06T21:38:48.664Z,6.50
2019-04-06T21:41:19.713Z,6.50
2019-04-06T21:43:51.015Z,6.40
2019-04-06T21:46:22.373Z,6.30
2019-04-06T21:48:53.523Z,6.30
2019-04-06T21:51:24.689Z,6.20
2019-04-06T21:53:56.308Z,6.20
2019-04-06T21:56:27.505Z,6.20
2019-04-06T21:58:58.591Z,6.10
2019-04-06T22:01:29.850Z,6.10
2019-04-06T22:04:01.481Z,6.00
2019-04-06T22:06:32.631Z,5.90
2019-04-06T22:09:04.772Z,5.90
2019-04-06T22:11:37.096Z,5.90
2019-04-06T22:14:09.258Z,5.80
2019-04-06T22:16:43.051Z,5.80
2019-04-06T22:19:20.440Z,5.80
2019-04-06T22:21:58.700Z,5.70
2019-04-06T22:24:31.546Z,5.60
2019-04-06T22:27:03.107Z,5.60
2019-04-06T22:29:34.364Z,5.60
2019-04-06T22:32:06.703Z,5.50
2019-04-06T22:34:40.222Z,5.40
2019-04-06T22:37:11.808Z,5.40
2019-04-06T22:39:43.315Z,5.30
2019-04-06T22:42:14.510Z,5.30
2019-04-06T22:44:46.381Z,5.20
2019-04-06T22:47:17.560Z,5.20
2019-04-06T22:49:48.732Z,5.30
2019-04-06T22:52:21.108Z,5.30
2019-04-06T22:54:52.466Z,5.30
2019-04-06T22:57:23.920Z,5.20
2019-04-06T22:59:55.263Z,5.10
2019-04-06T23:02:28.142Z,5.10
2019-04-06T23:05:24.454Z,5.00
2019-04-06T23:07:56.138Z,4.90
2019-04-06T23:10:27.424Z,4.80
2019-04-06T23:12:58.610Z,4.80
2019-04-06T23:15:30.320Z,4.70
2019-04-06T23:18:01.522Z,4.70
2019-04-06T23:20:32.656Z,4.60
2019-04-06T23:23:03.791Z,4.60
2019-04-06T23:25:35.961Z,4.50
2019-04-06T23:28:07.084Z,4.50
2019-04-06T23:30:38.499Z,4.40
2019-04-06T23:33:09.699Z,4.40
2019-04-06T23:35:41.286Z,4.40
2019-04-06T23:38:13.273Z,4.30
2019-04-06T23:40:44.429Z,4.30
2019-04-06T23:43:16.170Z,4.30
2019-04-06T23:45:47.528Z,4.30
2019-04-06T23:48:18.837Z,4.20
2019-04-06T23:50:51.603Z,4.20
2019-04-06T23:53:23.138Z,4.20
2019-04-06T23:55:54.307Z,4.20
2019-04-06T23:58:25.686Z,4.10
